createdAt,value
2019-05-03T00:00:14.031Z,8.20
2019-05-03T00:03:12.040Z,8.80
2019-05-03T00:05:54.425Z,9.37
2019-05-03T00:08:23.906Z,9.37
2019-05-03T00:10:54.382Z,9.80
2019-05-03T00:13:25.888Z,10.10
2019-05-03T00:16:12.897Z,11.23
2019-05-03T00:19:05.381Z,11.83
2019-05-03T00:21:37.100Z,12.50
2019-05-03T00:24:06.544Z,12.57
2019-05-03T00:26:36.054Z,12.18
2019-05-03T00:29:05.574Z,12.20
2019-05-03T00:31:35.375Z,11.97
2019-05-03T00:34:12.499Z,12.10
2019-05-03T00:36:52.461Z,11.63
2019-05-03T00:39:36.528Z,13.97
2019-05-03T00:42:06.048Z,14.20
2019-05-03T00:44:46.234Z,15.57
2019-05-03T00:47:19.426Z,16.00
2019-05-03T00:49:51.722Z,15.17
2019-05-03T00:52:22.367Z,16.87
2019-05-03T00:54:52.903Z,16.90
2019-05-03T00:57:22.822Z,15.93
2019-05-03T00:59:52.805Z,17.23
2019-05-03T01:02:22.463Z,16.55
2019-05-03T01:05:07.666Z,16.00
2019-05-03T01:07:36.760Z,17.83
2019-05-03T01:10:12.236Z,15.20
2019-05-03T01:12:41.650Z,18.27
2019-05-03T01:15:21.557Z,15.30
2019-05-03T01:17:52.541Z,17.27
2019-05-03T01:20:22.576Z,17.90
2019-05-03T01:22:52.006Z,16.83
2019-05-03T01:25:31.575Z,18.00
2019-05-03T01:27:52.761Z,17.43
2019-05-03T01:30:22.696Z,17.40
2019-05-03T01:32:52.353Z,18.80
2019-05-03T01:35:24.844Z,16.87
2019-05-03T01:37:54.398Z,17.27
2019-05-03T01:40:24.106Z,17.73
2019-05-03T01:42:59.178Z,18.17
2019-05-03T01:45:29.137Z,17.50
2019-05-03T01:48:08.039Z,17.80
2019-05-03T01:50:49.243Z,17.00
2019-05-03T01:53:21.634Z,16.70
2019-05-03T01:55:52.342Z,15.13
2019-05-03T01:58:23.279Z,15.70
2019-05-03T02:01:03.773Z,14.43
2019-05-03T02:06:19.052Z,12.80
2019-05-03T02:08:48.238Z,11.43
2019-05-03T02:11:24.365Z,11.53
2019-05-03T02:13:54.385Z,9.97
2019-05-03T02:16:23.825Z,9.93
2019-05-03T02:18:53.174Z,9.43
2019-05-03T02:21:22.443Z,10.00
2019-05-03T02:23:53.098Z,9.03
2019-05-03T02:26:24.628Z,8.73
2019-05-03T02:28:53.991Z,8.47
2019-05-03T02:31:24.733Z,7.80
2019-05-03T02:33:54.163Z,7.53
2019-05-03T02:36:26.381Z,7.57
2019-05-03T02:38:57.261Z,6.93
2019-05-03T02:41:26.638Z,6.53
2019-05-03T02:43:59.723Z,6.83
2019-05-03T02:46:46.639Z,6.43
2019-05-03T02:49:25.804Z,6.80
2019-05-03T02:51:55.609Z,7.50
2019-05-03T02:54:26.995Z,6.00
2019-05-03T02:56:57.307Z,6.90
2019-05-03T02:59:26.752Z,6.60
2019-05-03T03:01:56.531Z,6.15
2019-05-03T03:04:27.028Z,5.80
2019-05-03T03:06:58.473Z,5.47
2019-05-03T03:09:28.363Z,5.37
2019-05-03T03:11:59.664Z,6.00
2019-05-03T03:14:30.374Z,5.30
2019-05-03T03:17:03.053Z,4.70
2019-05-03T03:19:35.341Z,5.33
2019-05-03T03:22:07.722Z,5.47
2019-05-03T03:24:41.720Z,5.30
2019-05-03T03:27:16.430Z,4.63
2019-05-03T03:29:52.339Z,5.47
2019-05-03T03:32:29.588Z,6.27
2019-05-03T03:35:20.463Z,5.17
2019-05-03T03:37:46.324Z,6.00
2019-05-03T03:40:18.181Z,7.00
2019-05-03T03:42:50.282Z,6.80
2019-05-03T03:45:20.063Z,5.57
2019-05-03T03:47:56.392Z,6.00
2019-05-03T03:50:26.493Z,5.83
2019-05-03T03:52:58.885Z,5.40
2019-05-03T03:55:31.299Z,5.67
2019-05-03T03:58:01.039Z,5.95
2019-05-03T04:00:31.262Z,5.70
2019-05-03T04:03:00.918Z,5.80
2019-05-03T04:05:30.492Z,6.93
2019-05-03T04:08:00.171Z,6.47
2019-05-03T04:10:30.055Z,6.00
2019-05-03T04:12:59.846Z,6.87
2019-05-03T04:15:46.572Z,6.90
2019-05-03T04:18:40.546Z,7.97
2019-05-03T04:21:09.816Z,8.73
2019-05-03T04:23:40.513Z,8.20
2019-05-03T04:26:09.817Z,7.50
2019-05-03T04:28:40.141Z,8.17
2019-05-03T04:31:09.474Z,8.47
2019-05-03T04:33:45.179Z,8.90
2019-05-03T04:36:16.930Z,9.40
2019-05-03T04:38:49.251Z,10.65
2019-05-03T04:41:27.627Z,11.73
2019-05-03T04:43:59.997Z,12.80
2019-05-03T04:46:43.176Z,13.70
2019-05-03T04:49:15.015Z,14.50
2019-05-03T04:51:46.391Z,13.90
2019-05-03T04:54:25.455Z,13.00
2019-05-03T04:56:56.123Z,14.40
2019-05-03T04:59:26.497Z,14.50
2019-05-03T05:01:56.521Z,14.90
2019-05-03T05:04:26.254Z,15.40
2019-05-03T05:06:59.109Z,15.13
2019-05-03T05:09:30.945Z,16.47
2019-05-03T05:12:00.821Z,14.80
2019-05-03T05:14:31.485Z,14.87
2019-05-03T05:17:01.145Z,13.10
2019-05-03T05:19:39.366Z,14.90
2019-05-03T05:22:10.550Z,14.30
2019-05-03T05:24:41.622Z,14.23
2019-05-03T05:27:18.934Z,14.43
2019-05-03T05:29:48.176Z,13.90
2019-05-03T05:32:17.509Z,15.70
2019-05-03T05:34:48.755Z,14.73
2019-05-03T05:37:19.643Z,15.20
2019-05-03T05:39:48.868Z,14.50
2019-05-03T05:42:22.179Z,14.00
2019-05-03T05:44:52.472Z,13.07
2019-05-03T05:47:37.749Z,12.77
2019-05-03T05:50:35.955Z,11.87
2019-05-03T05:53:05.188Z,11.12
2019-05-03T05:55:52.412Z,12.17
2019-05-03T05:58:46.972Z,10.20
2019-05-03T06:01:32.110Z,11.07
2019-05-03T06:04:01.309Z,10.30
2019-05-03T06:06:37.567Z,9.77
2019-05-03T06:09:25.625Z,12.10
2019-05-03T06:11:59.820Z,11.80
2019-05-03T06:14:36.811Z,11.00
2019-05-03T06:17:40.251Z,10.83
2019-05-03T06:20:25.748Z,10.97
2019-05-03T06:23:05.209Z,10.60
2019-05-03T06:25:37.842Z,12.20
2019-05-03T06:28:18.310Z,12.20
2019-05-03T06:31:02.062Z,10.10
2019-05-03T06:33:31.377Z,9.90
2019-05-03T06:36:00.893Z,10.70
2019-05-03T06:38:30.184Z,8.93
2019-05-03T06:41:00.254Z,10.50
2019-05-03T06:43:29.577Z,10.60
2019-05-03T06:45:59.007Z,10.35
2019-05-03T06:48:32.024Z,10.20
2019-05-03T06:51:00.297Z,9.40
2019-05-03T06:53:30.488Z,9.60
2019-05-03T06:55:59.790Z,8.10
2019-05-03T06:58:33.499Z,8.27
2019-05-03T07:01:27.922Z,7.67
2019-05-03T07:04:17.414Z,6.95
2019-05-03T07:07:20.708Z,7.00
2019-05-03T07:10:00.955Z,7.83
2019-05-03T07:12:47.101Z,7.60
2019-05-03T07:15:19.745Z,7.47
2019-05-03T07:17:49.401Z,7.05
2019-05-03T07:20:18.693Z,7.83
2019-05-03T07:22:48.298Z,6.93
2019-05-03T07:25:17.499Z,6.93
2019-05-03T07:27:46.962Z,6.40
2019-05-03T07:30:16.714Z,6.90
2019-05-03T07:32:48.566Z,7.60
2019-05-03T07:35:17.972Z,8.40
2019-05-03T07:37:47.579Z,8.10
2019-05-03T07:40:16.868Z,6.50
2019-05-03T07:42:46.495Z,7.20
2019-05-03T07:45:15.841Z,6.80
2019-05-03T07:47:45.248Z,8.37
2019-05-03T07:50:15.271Z,7.90
2019-05-03T07:52:45.104Z,7.57
2019-05-03T07:55:15.033Z,7.28
2019-05-03T07:57:55.497Z,6.73
2019-05-03T08:00:29.429Z,6.67
2019-05-03T08:03:01.815Z,5.63
2019-05-03T08:05:31.100Z,6.17
2019-05-03T08:08:00.263Z,4.47
2019-05-03T08:10:29.573Z,3.90
2019-05-03T08:12:58.855Z,3.77
2019-05-03T08:15:28.425Z,3.80
2019-05-03T08:17:58.006Z,4.00
2019-05-03T08:20:27.274Z,4.05
2019-05-03T08:22:56.935Z,3.97
2019-05-03T08:25:26.388Z,3.65
2019-05-03T08:27:55.808Z,5.07
2019-05-03T08:30:33.031Z,4.93
2019-05-03T08:33:09.500Z,4.42
2019-05-03T08:35:41.711Z,4.23
2019-05-03T08:38:11.192Z,4.73
2019-05-03T08:40:57.598Z,3.90
2019-05-03T08:43:59.553Z,4.03
2019-05-03T08:46:47.196Z,4.80
2019-05-03T08:49:22.920Z,4.17
2019-05-03T08:52:00.981Z,3.73
2019-05-03T08:54:45.369Z,3.75
2019-05-03T08:57:15.078Z,3.77
2019-05-03T08:59:45.294Z,4.55
2019-05-03T09:02:21.773Z,4.50
2019-05-03T09:04:58.919Z,4.97
2019-05-03T09:07:31.316Z,4.70
2019-05-03T09:10:16.690Z,4.07
2019-05-03T09:13:03.529Z,4.60
2019-05-03T09:19:05.507Z,4.67
2019-05-03T09:21:42.798Z,4.97
2019-05-03T09:24:35.175Z,5.47
2019-05-03T09:27:10.645Z,5.40
2019-05-03T09:33:09.033Z,4.50
2019-05-03T09:35:45.620Z,4.75
2019-05-03T09:38:45.946Z,4.10
2019-05-03T09:41:17.774Z,4.78
2019-05-03T09:43:47.364Z,6.20
2019-05-03T09:46:16.727Z,5.80
2019-05-03T09:48:47.117Z,5.92
2019-05-03T09:51:19.222Z,6.13
2019-05-03T09:54:02.603Z,6.60
2019-05-03T09:56:57.584Z,5.10
2019-05-03T09:59:20.396Z,5.97
2019-05-03T10:01:49.743Z,5.30
2019-05-03T10:04:31.459Z,5.62
2019-05-03T10:07:00.758Z,4.67
2019-05-03T10:09:30.151Z,4.90
2019-05-03T10:12:09.798Z,5.87
2019-05-03T10:14:45.971Z,5.97
2019-05-03T10:17:38.472Z,6.28
2019-05-03T10:20:10.197Z,6.30
2019-05-03T10:22:43.543Z,5.63
2019-05-03T10:25:15.440Z,4.63
2019-05-03T10:27:50.161Z,4.27
2019-05-03T10:30:28.038Z,3.53
2019-05-03T10:33:05.810Z,3.90
2019-05-03T10:36:32.837Z,3.97
2019-05-03T10:46:10.379Z,4.97
2019-05-03T10:48:51.453Z,4.23
2019-05-03T10:53:09.454Z,4.53
2019-05-03T10:55:35.927Z,4.13
2019-05-03T10:58:46.079Z,4.80
2019-05-03T11:12:44.863Z,3.60
2019-05-03T11:15:25.675Z,3.42
2019-05-03T11:18:34.666Z,2.90
2019-05-03T11:20:55.990Z,2.47
2019-05-03T11:24:41.123Z,2.83
2019-05-03T11:36:16.712Z,2.90
2019-05-03T11:38:50.407Z,2.63
2019-05-03T11:41:30.250Z,2.43
2019-05-03T11:43:57.690Z,2.80
2019-05-03T11:46:27.084Z,3.15
2019-05-03T11:49:14.881Z,2.90
2019-05-03T11:51:48.919Z,2.60
2019-05-03T11:54:19.695Z,3.00
2019-05-03T11:57:12.014Z,3.23
2019-05-03T11:59:48.794Z,3.27
2019-05-03T12:02:29.478Z,3.53
2019-05-03T12:04:59.834Z,3.83
2019-05-03T12:07:39.439Z,4.10
2019-05-03T12:10:20.673Z,3.27
2019-05-03T12:12:59.665Z,3.00
2019-05-03T12:15:36.930Z,2.90
2019-05-03T12:18:16.358Z,2.60
2019-05-03T12:20:47.075Z,2.70
2019-05-03T12:23:17.146Z,3.57
2019-05-03T12:25:47.853Z,2.73
2019-05-03T12:28:21.929Z,3.03
2019-05-03T12:30:53.994Z,2.90
2019-05-03T12:33:26.026Z,3.70
2019-05-03T12:35:55.630Z,3.42
2019-05-03T12:38:25.644Z,3.70
2019-05-03T12:40:57.005Z,3.33
2019-05-03T12:43:29.325Z,2.80
2019-05-03T12:45:58.572Z,3.23
2019-05-03T12:48:27.836Z,2.80
2019-05-03T12:50:58.955Z,3.30
2019-05-03T12:53:30.144Z,2.90
2019-05-03T12:56:00.308Z,2.93
2019-05-03T12:58:56.424Z,3.50
2019-05-03T13:01:41.717Z,3.20
2019-05-03T13:04:16.335Z,4.03
2019-05-03T13:06:50.346Z,3.10
2019-05-03T13:09:19.510Z,3.20
2019-05-03T13:11:56.376Z,3.40
2019-05-03T13:14:25.389Z,3.03
2019-05-03T13:16:55.214Z,3.77
2019-05-03T13:19:25.759Z,2.80
2019-05-03T13:21:55.605Z,3.02
2019-05-03T13:24:26.049Z,3.13
2019-05-03T13:26:55.373Z,2.70
2019-05-03T13:29:25.589Z,3.30
2019-05-03T13:32:01.788Z,2.80
2019-05-03T13:34:28.515Z,3.30
2019-05-03T13:36:57.838Z,3.20
2019-05-03T13:39:27.429Z,2.50
2019-05-03T13:41:57.048Z,2.77
2019-05-03T13:44:26.261Z,2.80
2019-05-03T13:46:55.588Z,2.60
2019-05-03T13:49:26.385Z,3.07
2019-05-03T13:51:56.060Z,2.80
2019-05-03T13:54:25.963Z,2.57
2019-05-03T13:56:55.345Z,2.60
2019-05-03T13:59:24.730Z,2.83
2019-05-03T14:01:54.554Z,2.93
2019-05-03T14:04:29.455Z,2.97
2019-05-03T14:06:58.796Z,3.30
2019-05-03T14:09:28.129Z,2.77
2019-05-03T14:11:57.726Z,2.83
2019-05-03T14:14:26.911Z,2.60
2019-05-03T14:16:56.528Z,2.80
2019-05-03T14:19:34.666Z,2.90
2019-05-03T14:22:05.898Z,2.90
2019-05-03T14:24:35.506Z,3.20
2019-05-03T14:27:05.554Z,2.95
2019-05-03T14:29:34.966Z,2.67
2019-05-03T14:32:05.290Z,2.60
2019-05-03T14:34:35.932Z,2.60
2019-05-03T14:37:05.215Z,3.10
2019-05-03T14:39:34.510Z,2.87
2019-05-03T14:42:04.793Z,2.43
2019-05-03T14:44:35.730Z,2.93
2019-05-03T14:47:07.908Z,2.77
2019-05-03T14:49:37.147Z,2.43
2019-05-03T14:52:06.444Z,2.90
2019-05-03T14:54:39.801Z,2.90
2019-05-03T14:57:16.842Z,3.10
2019-05-03T15:00:16.965Z,2.50
2019-05-03T15:02:57.891Z,3.07
2019-05-03T15:05:26.307Z,2.83
2019-05-03T15:07:57.153Z,2.60
2019-05-03T15:10:27.603Z,3.10
2019-05-03T15:12:56.838Z,3.07
2019-05-03T15:15:28.716Z,2.80
2019-05-03T15:17:57.413Z,2.97
2019-05-03T15:20:27.330Z,3.30
2019-05-03T15:22:56.571Z,3.37
2019-05-03T15:25:26.369Z,2.83
2019-05-03T15:27:56.307Z,3.20
2019-05-03T15:30:25.714Z,3.27
2019-05-03T15:33:00.471Z,2.93
2019-05-03T15:35:26.032Z,2.93
2019-05-03T15:37:55.887Z,3.20
2019-05-03T15:40:25.601Z,2.87
2019-05-03T15:43:07.176Z,2.73
2019-05-03T15:45:51.686Z,2.67
2019-05-03T15:48:24.601Z,3.37
2019-05-03T15:50:55.358Z,2.90
2019-05-03T15:53:25.313Z,2.73
2019-05-03T15:55:55.171Z,2.67
2019-05-03T15:58:25.026Z,2.87
2019-05-03T16:00:55.365Z,2.80
2019-05-03T16:03:25.457Z,3.17
2019-05-03T16:05:55.599Z,3.57
2019-05-03T16:08:25.551Z,2.60
2019-05-03T16:10:55.112Z,2.60
2019-05-03T16:13:25.181Z,3.33
2019-05-03T16:15:55.822Z,2.87
2019-05-03T16:18:25.211Z,2.90
2019-05-03T16:20:56.761Z,2.80
2019-05-03T16:23:28.138Z,3.43
2019-05-03T16:25:59.443Z,3.43
2019-05-03T16:28:50.909Z,2.83
2019-05-03T16:31:21.953Z,3.03
2019-05-03T16:33:51.892Z,3.47
2019-05-03T16:36:21.116Z,3.35
2019-05-03T16:38:50.664Z,3.50
2019-05-03T16:41:19.951Z,5.05
2019-05-03T16:43:49.298Z,3.30
2019-05-03T16:46:18.548Z,3.53
2019-05-03T16:48:47.843Z,3.77
2019-05-03T16:51:17.474Z,3.30
2019-05-03T16:53:47.079Z,3.77
2019-05-03T16:56:17.135Z,3.80
2019-05-03T16:58:46.911Z,3.93
2019-05-03T17:01:18.159Z,3.30
2019-05-03T17:03:54.825Z,3.52
2019-05-03T17:06:41.118Z,3.30
2019-05-03T17:09:38.499Z,3.80
2019-05-03T17:12:25.523Z,3.80
2019-05-03T17:14:57.024Z,3.50
2019-05-03T17:17:27.156Z,3.57
2019-05-03T17:20:01.291Z,3.90
2019-05-03T17:22:30.600Z,3.87
2019-05-03T17:25:00.107Z,3.67
2019-05-03T17:27:30.220Z,4.27
2019-05-03T17:29:59.625Z,3.60
2019-05-03T17:32:29.406Z,4.10
2019-05-03T17:34:58.699Z,4.08
2019-05-03T17:37:27.979Z,4.20
2019-05-03T17:40:19.598Z,3.83
2019-05-03T17:43:05.031Z,3.80
2019-05-03T17:45:38.581Z,3.10
2019-05-03T17:48:07.898Z,3.83
2019-05-03T17:50:37.542Z,4.10
2019-05-03T17:53:29.645Z,3.20
2019-05-03T17:56:15.275Z,4.30
2019-05-03T17:58:56.764Z,3.90
2019-05-03T18:01:55.368Z,4.30
2019-05-03T18:04:50.125Z,3.47
2019-05-03T18:07:34.929Z,3.53
2019-05-03T18:10:07.603Z,4.00
2019-05-03T18:12:36.904Z,3.93
2019-05-03T18:15:06.387Z,3.90
2019-05-03T18:17:35.654Z,3.83
2019-05-03T18:20:07.688Z,4.00
2019-05-03T18:22:37.084Z,4.67
2019-05-03T18:25:06.908Z,3.63
2019-05-03T18:27:36.587Z,3.87
2019-05-03T18:30:06.895Z,3.73
2019-05-03T18:32:36.284Z,4.17
2019-05-03T18:35:06.421Z,4.13
2019-05-03T18:37:36.347Z,4.07
2019-05-03T18:40:06.426Z,4.40
2019-05-03T18:42:41.520Z,4.03
2019-05-03T18:45:16.939Z,4.03
2019-05-03T18:47:46.493Z,4.23
2019-05-03T18:50:19.385Z,4.70
2019-05-03T18:52:48.665Z,4.73
2019-05-03T18:55:18.005Z,4.60
2019-05-03T18:57:47.331Z,4.50
2019-05-03T19:00:18.674Z,5.10
2019-05-03T19:02:48.018Z,4.80
2019-05-03T19:05:20.166Z,5.03
2019-05-03T19:08:06.311Z,5.83
2019-05-03T19:10:44.718Z,6.10
2019-05-03T19:13:18.171Z,5.20
2019-05-03T19:15:47.918Z,5.12
2019-05-03T19:18:35.234Z,4.90
2019-05-03T19:21:04.843Z,4.93
2019-05-03T19:23:35.507Z,5.10
2019-05-03T19:26:05.631Z,5.33
2019-05-03T19:28:35.374Z,5.00
2019-05-03T19:31:05.408Z,4.87
2019-05-03T19:33:37.206Z,4.77
2019-05-03T19:36:05.959Z,5.67
2019-05-03T19:38:35.303Z,4.33
2019-05-03T19:41:04.646Z,4.43
2019-05-03T19:43:35.531Z,5.30
2019-05-03T19:46:07.417Z,4.92
2019-05-03T19:48:36.116Z,5.23
2019-05-03T19:51:06.011Z,4.73
2019-05-03T19:53:55.394Z,5.95
2019-05-03T19:56:25.637Z,5.30
2019-05-03T19:59:04.492Z,4.40
2019-05-03T20:02:01.504Z,5.63
2019-05-03T20:05:00.603Z,5.03
2019-05-03T20:07:38.254Z,5.80
2019-05-03T20:10:10.497Z,5.57
2019-05-03T20:12:39.828Z,6.03
2019-05-03T20:15:09.802Z,5.67
2019-05-03T20:17:39.440Z,6.30
2019-05-03T20:20:09.399Z,5.97
2019-05-03T20:22:38.643Z,6.03
2019-05-03T20:25:08.270Z,7.90
2019-05-03T20:27:37.412Z,5.83
2019-05-03T20:30:07.259Z,6.40
2019-05-03T20:32:36.909Z,6.47
2019-05-03T20:35:16.727Z,6.70
2019-05-03T20:37:37.446Z,6.37
2019-05-03T20:40:09.655Z,6.40
2019-05-03T20:42:57.074Z,6.37
2019-05-03T20:45:37.764Z,5.70
2019-05-03T20:48:07.821Z,6.80
2019-05-03T20:50:37.127Z,6.17
2019-05-03T20:53:06.436Z,8.00
2019-05-03T20:55:35.754Z,7.17
2019-05-03T20:58:07.908Z,6.92
2019-05-03T21:00:36.306Z,8.73
2019-05-03T21:03:05.588Z,7.70
2019-05-03T21:05:37.371Z,6.80
2019-05-03T21:08:06.017Z,7.47
2019-05-03T21:10:35.373Z,7.60
2019-05-03T21:13:05.449Z,7.80
2019-05-03T21:15:45.152Z,7.70
2019-05-03T21:18:36.439Z,7.40
2019-05-03T21:21:25.186Z,7.10
2019-05-03T21:23:58.069Z,8.03
2019-05-03T21:26:27.406Z,7.43
2019-05-03T21:28:56.674Z,8.20
2019-05-03T21:31:26.276Z,8.60
2019-05-03T21:33:55.573Z,8.53
2019-05-03T21:36:25.473Z,8.30
2019-05-03T21:38:55.085Z,8.40
2019-05-03T21:41:24.713Z,11.87
2019-05-03T21:43:54.603Z,11.63
2019-05-03T21:46:39.447Z,10.83
2019-05-03T21:49:29.176Z,11.78
2019-05-03T21:51:58.549Z,11.13
2019-05-03T21:54:27.840Z,12.10
2019-05-03T21:56:58.011Z,10.98
2019-05-03T21:59:27.495Z,12.53
2019-05-03T22:01:57.045Z,11.63
2019-05-03T22:04:26.999Z,13.00
2019-05-03T22:06:58.101Z,12.82
2019-05-03T22:09:27.725Z,12.03
2019-05-03T22:11:57.264Z,12.93
2019-05-03T22:14:32.139Z,15.00
2019-05-03T22:17:25.243Z,14.10
2019-05-03T22:19:58.090Z,14.67
2019-05-03T22:22:52.447Z,13.60
2019-05-03T22:25:25.817Z,15.33
2019-05-03T22:27:55.001Z,15.27
2019-05-03T22:30:26.699Z,15.45
2019-05-03T22:32:55.294Z,15.53
2019-05-03T22:35:25.159Z,16.73
2019-05-03T22:37:57.151Z,17.43
2019-05-03T22:40:26.609Z,16.57
2019-05-03T22:42:55.928Z,14.70
2019-05-03T22:45:25.211Z,15.87
2019-05-03T22:47:54.987Z,17.93
2019-05-03T22:50:25.548Z,16.63
2019-05-03T22:52:55.192Z,17.40
2019-05-03T22:55:24.781Z,16.80
2019-05-03T22:57:54.651Z,18.33
2019-05-03T23:00:25.219Z,17.27
2019-05-03T23:02:54.868Z,16.70
2019-05-03T23:05:24.217Z,19.05
2019-05-03T23:07:55.285Z,17.73
2019-05-03T23:10:25.676Z,18.50
2019-05-03T23:12:55.343Z,19.67
2019-05-03T23:15:24.876Z,17.77
2019-05-03T23:17:54.617Z,19.02
2019-05-03T23:20:35.052Z,18.62
2019-05-03T23:23:05.388Z,19.10
2019-05-03T23:25:35.562Z,19.03
2019-05-03T23:28:05.048Z,19.87
2019-05-03T23:30:34.281Z,18.77
2019-05-03T23:33:03.592Z,20.70
2019-05-03T23:35:34.899Z,19.37
2019-05-03T23:38:04.821Z,19.00
2019-05-03T23:40:34.771Z,21.60
2019-05-03T23:43:05.259Z,17.50
2019-05-03T23:45:34.876Z,20.08
2019-05-03T23:48:04.668Z,21.33
2019-05-03T23:50:35.348Z,20.40
2019-05-03T23:53:04.998Z,20.97
2019-05-03T23:55:44.817Z,20.37
2019-05-03T23:58:14.116Z,19.57
